• Join FlightAware (Why Join?)
  • Login
  • US Flag 
07:47AM EDT


 

Airport Tracker/Info


-or-


 

Live Flight TrackerFlight Track Log ✈ DAL1149 ✈ 28-Apr-2012 ✈ KLAX - PHNL

Flight Track Log - Related Links

Times and Time Zones

All times are in EDT time to prevent confusion due to time zone crossing. See the DAL1149 flight status page for this flight to view local times or setup timezone preferences in your user account.

Time Position Orientation Groundspeed Altitude Reporting Facility
EDT Latitude Longitude Course Direction KTS MPH feet Rate Location/Type
07:55PM 33.9500 -118.4500 261° West 140 161 1,700  Level Southern California TRACON
07:57PM 33.9383 -118.5400 263° West 211 243 2,800 1,500 Climbing Los Angeles Center
07:58PM 33.9281 -118.6422 261° West 258 297 5,200 2,400 Climbing Los Angeles Center
07:59PM 33.9156 -118.7369 266° West 280 322 7,600 2,400 Climbing Los Angeles Center
08:00PM 33.9092 -118.8344 263° West 291 335 10,000 1,860 Climbing Los Angeles Center
08:01PM 33.8986 -118.9392 261° West 298 343 11,400 1,140 Climbing Los Angeles Center
08:02PM 33.8858 -119.0414 263° West 320 368 12,300 1,140 Climbing Los Angeles Center
08:03PM 33.8722 -119.1708 263° West 360 414 13,700 1,560 Climbing Los Angeles Center
08:04PM 33.8583 -119.3031 262° West 389 448 15,500 1,860 Climbing Los Angeles Center
08:05PM 33.8422 -119.4325 264° West 399 459 17,500 1,800 Climbing Los Angeles Center
08:06PM 33.8303 -119.5644 263° West 404 465 19,200 7,200 Climbing Los Angeles Center
08:07PM 33.8158 -119.7039 261° West 409 471 32,000 1,260 Climbing Los Angeles Center
08:08PM 33.7969 -119.8456 264° West 422 486 21,800 -4,500 Descending Los Angeles Center
08:09PM 33.7839 -120.0025 265° West 427 491 23,000 1,200 Climbing Los Angeles Center
08:10PM 33.7728 -120.1444 263° West 427 491 24,200 1,140 Climbing Los Angeles Center
08:11PM 33.7575 -120.2886 262° West 433 498 25,400 900 Climbing Los Angeles Center
08:12PM 33.7400 -120.4350 263° West 443 510 26,000 480 Climbing Los Angeles Center
08:13PM 33.7242 -120.5867 262° West 450 518 26,400 900 Climbing Los Angeles Center
08:14PM 33.7061 -120.7356 261° West 457 526 27,800 1,260 Climbing Los Angeles Center
08:15PM 33.6878 -120.8817 263° West 457 526 29,000 1,140 Climbing Los Angeles Center
08:16PM 33.6739 -121.0258 261° West 452 520 30,100 1,020 Climbing Los Angeles Center
08:17PM 33.6556 -121.1669 262° West 446 513 31,100 900 Climbing Los Angeles Center
08:18PM 33.6392 -121.3083 261° West 441 507 31,900 420 Climbing Los Angeles Center
08:19PM 33.6206 -121.4517 261° West 441 507 32,000  Climbing Los Angeles Center
08:20PM 33.6047 -121.5728 262° West 435 501 32,000  Level Los Angeles Center
08:21PM 33.5878 -121.7164 261° West 435 501 32,000  Level Los Angeles Center
08:22PM 33.5689 -121.8547 263° West 430 495 32,000  Level Los Angeles Center
08:23PM 33.5536 -121.9983 263° West 436 502 32,000  Level Los Angeles Center
08:24PM 33.5383 -122.1392 258° West 436 502 32,000  Level Los Angeles Center
08:25PM 33.5147 -122.2772 261° West 436 502 32,000  Level Los Angeles Center
08:26PM 33.4972 -122.4153 263° West 431 496 32,000  Level Los Angeles Center
08:27PM 33.4811 -122.5636 256° West 436 502 32,000  Level Los Angeles Center
08:42PM 33.0667 -124.5167 255° West 442 509 32,000  Level Oakland Oceanic (ODAPS)
09:37PM 31.1000 -132.1333 251° West 477 549 32,000  Level Oakland Oceanic (ODAPS)
10:27PM 28.7000 -139.4333 247° West 492 566 32,000  Level Oakland Oceanic (ODAPS)
11:15PM 26.0000 -146.1667 244° Southwest 481 554 32,000  Level Oakland Oceanic (ODAPS)
12:04AM 22.8833 -152.8667 242° Southwest 500 575 32,000  Level Honolulu Center
12:05AM 22.8167 -153.0000 255° West 480 552 32,000  Level Honolulu Center
12:06AM 22.7833 -153.1333 250° West 490 564 32,000  Level Honolulu Center
12:07AM 22.7333 -153.2833 255° West 490 564 32,000  Level Honolulu Center
12:08AM 22.7000 -153.4167 255° West 490 564 32,000  Level Honolulu Center
12:09AM 22.6667 -153.5500 250° West 490 564 32,000  Level Honolulu Center
12:10AM 22.6167 -153.7000 255° West 480 552 32,000  Level Honolulu Center
12:11AM 22.5833 -153.8333 248° West 480 552 32,000  Level Honolulu Center
12:12AM 22.5333 -153.9667 248° West 480 552 32,000  Level Honolulu Center
12:13AM 22.4833 -154.1000 257° West 480 552 32,000  Level Honolulu Center
12:14AM 22.4500 -154.2500 248° West 490 564 32,000  Level Honolulu Center
12:15AM 22.4000 -154.3833 255° West 480 552 32,000  Level Honolulu Center
12:16AM 22.3667 -154.5167 250° West 490 564 32,000  Level Honolulu Center
12:17AM 22.3167 -154.6667 255° West 480 552 32,000  Level Honolulu Center
12:18AM 22.2833 -154.8000 248° West 480 552 32,000  Level Honolulu Center
12:19AM 22.2333 -154.9333 255° West 480 552 32,000  Level Honolulu Center
12:20AM 22.2000 -155.0667 248° West 480 552 32,000  Level Honolulu Center
12:21AM 22.1500 -155.2000 250° West 480 552 32,000  Level Honolulu Center
12:22AM 22.1000 -155.3500 255° West 480 552 32,000  Level Honolulu Center
12:23AM 22.0667 -155.4833 248° West 480 552 32,000  Level Honolulu Center
12:24AM 22.0167 -155.6167 255° West 480 552 32,000  Level Honolulu Center
12:25AM 21.9833 -155.7500 248° West 480 552 32,000  Level Honolulu Center
12:26AM 21.9333 -155.8833 248° West 480 552 32,000  Level Honolulu Center
12:27AM 21.8833 -156.0167 257° West 480 552 32,000  Level Honolulu Center
12:28AM 21.8500 -156.1667 250° West 480 552 32,000 -240 Level Honolulu Center
12:29AM 21.8000 -156.3167 248° West 480 552 31,600 -1,500 Descending Honolulu Center
12:30AM 21.7500 -156.4500 248° West 480 552 29,000 -2,400 Descending Honolulu Center
12:31AM 21.7000 -156.5833 253° West 470 541 26,900 -2,160 Descending Honolulu Center
12:32AM 21.6667 -156.7000 248° West 460 529 24,700 -2,340 Descending Honolulu Center
12:33AM 21.6167 -156.8333 255° West 440 506 22,300 -2,400 Descending Honolulu Center
12:34AM 21.5833 -156.9667 253° West 430 495 20,000 -2,340 Descending Honolulu Center
12:35AM 21.5500 -157.0833 245° Southwest 420 483 17,700 -2,160 Descending Honolulu Center
12:36AM 21.5000 -157.2000 253° West 410 472 15,700 -2,040 Descending Honolulu Center
12:37AM 21.4667 -157.3167 250° West 400 460 13,600 -2,040 Descending Honolulu Center
12:38AM 21.4333 -157.4167 250° West 380 437 11,700 -1,800 Descending Honolulu Center
12:39AM 21.4000 -157.5167 242° Southwest 360 414 10,100 -960 Descending Honolulu Center
12:40AM 21.3500 -157.6167 247° West 320 368 9,800 -840 Descending Honolulu Center
12:41AM 21.3167 -157.7000 242° Southwest 290 334 8,500 -900 Descending Honolulu Center
12:42AM 21.2833 -157.7667 247° West 260 299 8,100 -420 Descending Honolulu Center
12:43AM 21.2500 -157.8500 270° West 260 299 7,700 -900 Descending Honolulu Center
12:44AM 21.2500 -157.9167 270° West 230 265 6,300 -1,500 Descending Honolulu Center
12:45AM 21.2500 -157.9833 270° West 200 230 4,700 -1,620 Descending Honolulu Center
12:46AM 21.2500 -158.0333 360° North 210 242 3,100 -1,080 Descending Honolulu Center
12:47AM 21.3000 -158.0333 62° Northeast 190 219 2,600 -900 Descending Honolulu Center
12:48AM 21.3167 -158.0000 90° East 150 173 1,400 -1,080 Descending Honolulu Center
12:49AM 21.3167 -157.9500 90° East 130 150 500 -900 Descending Honolulu Center